Cruzeiro Das Ilhas — CSVK — position and weather

sailwx.info

Track history (hours):
 
Tides and Currents Weather Stations Pressure Air Temp Water Temp Dewpoint Dewpoint Depression Visibility Wind Speed Wind Dir Waves Ship Positions

Cruzeiro Das Ilhas

Last reported at 2018-Feb-21 11:30 UTC. Time now 2018-Feb-21 11:50 UTC.
Position N 38°32' W 028°37'.

Length 33 m; draft 2.4 m.

Type: Passenger vessel. MMSI: 204701240.

Date/timePositionNaut miles runAvg speedWind from/ knotsBaromVisibWave heightAir tempDewpointWater temp
2018-Feb-21 11:30N 38°32' W 028°37'0 0.0
2018-Feb-21 11:00N 38°32' W 028°37'0 0.0
2018-Feb-21 10:30N 38°32' W 028°37'0 0.0
2018-Feb-21 10:00N 38°32' W 028°37'0 0.0
2018-Feb-20 15:02N 38°32' W 028°37'0 0.0
2018-Feb-20 15:00N 38°32' W 028°37'4 8.4
2018-Feb-20 14:30N 38°32' W 028°32'3 5.2
2018-Feb-20 14:00N 38°34' W 028°30'611.2
2018-Feb-20 13:30N 38°37' W 028°23'611.5
2018-Feb-20 13:01N 38°39' W 028°17'4 7.9
2018-Feb-20 12:31N 38°41' W 028°12'4 8.1
2018-Feb-20 12:00N 38°38' W 028°16'611.1
2018-Feb-20 11:30N 38°36' W 028°23'510.8
2018-Feb-20 11:00N 38°34' W 028°29'3 5.8
2018-Feb-20 10:30N 38°32' W 028°32'4 8.1
2018-Feb-20 10:00N 38°32' W 028°37'0 0.0
2018-Feb-20 09:30N 38°32' W 028°37'0 0.0
2018-Feb-19 22:55N 38°32' W 028°37'1 3.6
2018-Feb-19 22:31N 38°33' W 028°35'3 5.8
2018-Feb-19 22:00N 38°32' W 028°32'4 8.9
2018-Feb-19 21:30N 38°35' W 028°28'611.3
2018-Feb-19 21:00N 38°38' W 028°21'611.4
2018-Feb-19 20:30N 38°40' W 028°14'1 2.6
2018-Feb-19 20:00N 38°40' W 028°13'611.3
2018-Feb-19 19:30N 38°38' W 028°20'611.5
2018-Feb-19 19:00N 38°36' W 028°26'611.1
2018-Feb-19 18:30N 38°33' W 028°32'2 3.7
2018-Feb-19 18:00N 38°33' W 028°34'2 4.3
2018-Feb-19 17:30N 38°32' W 028°37'0 0.0
2018-Feb-19 17:00N 38°32' W 028°37'0 0.0
2018-Feb-19 16:30N 38°32' W 028°37'0 0.0
2018-Feb-19 16:01N 38°32' W 028°37'0 0.0
2018-Feb-19 15:30N 38°32' W 028°37'0 0.2
2018-Feb-19 15:00N 38°32' W 028°37'4 8.7
2018-Feb-19 14:30N 38°32' W 028°32'3 6.1
2018-Feb-19 14:00N 38°34' W 028°29'611.2
2018-Feb-19 13:30N 38°37' W 028°23'611.5
2018-Feb-19 13:00N 38°39' W 028°16'3 6.7
2018-Feb-19 12:31N 38°41' W 028°12'4 8.7
2018-Feb-19 12:00N 38°39' W 028°17'611.1
2018-Feb-19 11:30N 38°37' W 028°24'611.3
2018-Feb-19 11:00N 38°34' W 028°30'2 5.0
2018-Feb-19 10:30N 38°32' W 028°32'4 8.1
2018-Feb-19 10:00N 38°32' W 028°37'0 0.0
2018-Feb-18 22:47N 38°32' W 028°37'2 8.6
2018-Feb-18 22:30N 38°32' W 028°34'2 3.9
2018-Feb-18 22:01N 38°33' W 028°32'510.9
2018-Feb-18 21:30N 38°36' W 028°26'510.9
2018-Feb-18 21:00N 38°38' W 028°19'510.9
2018-Feb-18 20:30N 38°40' W 028°13'0 0.2
2018-Feb-18 20:00N 38°40' W 028°13'611.3
2018-Feb-18 19:30N 38°38' W 028°20'611.4
2018-Feb-18 19:00N 38°36' W 028°26'510.8
2018-Feb-18 18:30N 38°33' W 028°32'2 4.1
2018-Feb-18 18:00N 38°33' W 028°35'2 4.1
2018-Feb-18 17:30N 38°32' W 028°37'0 0.0
2018-Feb-17 20:51N 38°32' W 028°37'2 7.0
2018-Feb-17 20:31N 38°32' W 028°34'2 3.7
2018-Feb-17 20:00N 38°33' W 028°32'611.1
2018-Feb-17 19:30N 38°36' W 028°26'611.2
2018-Feb-17 19:01N 38°38' W 028°20'611.3
2018-Feb-17 18:30N 38°40' W 028°13'1 2.3
2018-Feb-17 18:00N 38°39' W 028°13'611.3
2018-Feb-17 17:30N 38°34' W 028°17'3 6.1
2018-Feb-17 17:00N 38°32' W 028°19'0 0.0
2018-Feb-17 16:31N 38°32' W 028°19'0 0.0
2018-Feb-17 16:00N 38°32' W 028°19'0 0.0
2018-Feb-17 15:30N 38°32' W 028°19'0 0.0
2018-Feb-17 15:00N 38°32' W 028°19'2 3.8
2018-Feb-17 14:31N 38°33' W 028°18'611.3
2018-Feb-17 14:00N 38°38' W 028°14'3 5.8
2018-Feb-17 13:30N 38°41' W 028°12'0 0.0
2018-Feb-17 13:01N 38°41' W 028°12'3 6.7
2018-Feb-17 12:30N 38°39' W 028°16'611.2
2018-Feb-17 12:00N 38°37' W 028°23'611.2
2018-Feb-17 11:31N 38°35' W 028°29'3 6.6
2018-Feb-17 11:00N 38°32' W 028°32'4 8.6
2018-Feb-17 10:31N 38°32' W 028°37'0 0.0
2018-Feb-16 23:48N 38°32' W 028°37'2 7.6
2018-Feb-16 23:31N 38°32' W 028°35'2 3.9
2018-Feb-16 23:00N 38°33' W 028°32'510.5
2018-Feb-16 22:30N 38°36' W 028°27'611.5
2018-Feb-16 22:00N 38°38' W 028°20'611.5
2018-Feb-16 21:30N 38°40' W 028°13'0 0.4
2018-Feb-16 21:00N 38°40' W 028°13'611.1
2018-Feb-16 20:31N 38°38' W 028°20'510.9
2018-Feb-16 20:00N 38°36' W 028°26'510.7
2018-Feb-16 19:30N 38°33' W 028°32'2 4.1
2018-Feb-16 19:01N 38°32' W 028°34'2 4.3
2018-Feb-16 18:30N 38°32' W 028°37'0 0.0
2018-Feb-16 18:00N 38°32' W 028°37'0 0.0
2018-Feb-16 17:30N 38°32' W 028°37'0 0.0
2018-Feb-16 17:00N 38°32' W 028°37'0 0.0
2018-Feb-16 16:30N 38°32' W 028°37'0 0.0
2018-Feb-16 16:00N 38°32' W 028°37'0 0.0
2018-Feb-16 15:30N 38°32' W 028°37'0 0.0
2018-Feb-16 15:00N 38°32' W 028°37'4 8.5
2018-Feb-16 14:30N 38°32' W 028°32'3 5.6
2018-Feb-16 14:00N 38°34' W 028°30'611.1
2018-Feb-16 13:30N 38°37' W 028°23'611.4
2018-Feb-16 13:00N 38°39' W 028°17'4 7.7
2018-Feb-16 12:30N 38°41' W 028°12'4 8.0
2018-Feb-16 12:01N 38°39' W 028°17'611.1
2018-Feb-16 11:30N 38°37' W 028°23'611.1
2018-Feb-16 11:01N 38°35' W 028°30'3 5.9
2018-Feb-16 10:30N 38°32' W 028°32'4 8.5
2018-Feb-16 10:01N 38°32' W 028°37'0 0.0
2018-Feb-15 15:01N 38°32' W 028°37'0 0.0
2018-Feb-15 15:00N 38°32' W 028°37'4 8.5
2018-Feb-15 14:30N 38°32' W 028°32'3 6.9
2018-Feb-15 14:01N 38°35' W 028°29'611.3
2018-Feb-15 13:30N 38°37' W 028°23'611.4
2018-Feb-15 13:00N 38°39' W 028°16'3 6.3
2018-Feb-15 12:30N 38°41' W 028°12'3 6.9
2018-Feb-15 12:01N 38°39' W 028°16'611.1
2018-Feb-15 11:30N 38°37' W 028°22'611.1
2018-Feb-15 11:00N 38°35' W 028°29'3 6.5
2018-Feb-15 10:30N 38°32' W 028°32'4 8.6
2018-Feb-15 10:00N 38°32' W 028°37'0 0.0
2018-Feb-14 22:49N 38°32' W 028°37'2 6.1
2018-Feb-14 22:30N 38°32' W 028°35'2 4.3
2018-Feb-14 22:00N 38°33' W 028°32'510.7
2018-Feb-14 21:30N 38°36' W 028°27'611.4
2018-Feb-14 21:00N 38°38' W 028°20'611.3
2018-Feb-14 20:30N 38°40' W 028°13'0 0.5
2018-Feb-14 20:00N 38°40' W 028°13'611.2
2018-Feb-14 19:31N 38°38' W 028°20'611.1
2018-Feb-14 19:00N 38°35' W 028°26'510.9
2018-Feb-14 18:30N 38°32' W 028°32'2 4.1
2018-Feb-14 18:00N 38°32' W 028°35'2 0.6
2018-Feb-14 14:34N 38°32' W 028°37'0 0.0
2018-Feb-14 14:31N 38°32' W 028°37'0 0.0
2018-Feb-14 14:00N 38°32' W 028°37'0 0.0
2018-Feb-14 13:30N 38°32' W 028°37'0 0.5
2018-Feb-14 13:00N 38°32' W 028°37'4 8.5
2018-Feb-14 12:30N 38°32' W 028°32'2 4.3
2018-Feb-14 12:00N 38°32' W 028°35'2 4.2
2018-Feb-14 11:31N 38°32' W 028°37'0 0.0
2018-Feb-14 11:00N 38°32' W 028°37'3 6.6
2018-Feb-14 10:30N 38°33' W 028°33'1 2.2
2018-Feb-14 10:00N 38°32' W 028°32'4 0.4
2018-Feb-13 22:48N 38°32' W 028°37'2 6.2
2018-Feb-13 22:30N 38°32' W 028°35'2 4.8
2018-Feb-13 22:00N 38°32' W 028°32'5 9.8
2018-Feb-13 21:30N 38°35' W 028°27'611.2
2018-Feb-13 21:00N 38°38' W 028°21'611.2
2018-Feb-13 20:30N 38°40' W 028°14'1 2.5
2018-Feb-13 20:00N 38°40' W 028°13'611.4
2018-Feb-13 19:30N 38°38' W 028°19'611.3
2018-Feb-13 19:01N 38°36' W 028°26'611.0
2018-Feb-13 18:30N 38°33' W 028°32'2 4.1
2018-Feb-13 18:00N 38°32' W 028°34'2 4.5
2018-Feb-13 17:30N 38°32' W 028°37'0 0.0
2018-Feb-12 22:53N 38°32' W 028°37'2 4.9
2018-Feb-12 22:30N 38°33' W 028°35'2 4.6
2018-Feb-12 22:00N 38°32' W 028°32'510.0
2018-Feb-12 21:30N 38°35' W 028°27'611.1
2018-Feb-12 21:01N 38°38' W 028°21'611.3
2018-Feb-12 20:30N 38°40' W 028°14'1 2.5
2018-Feb-12 20:00N 38°40' W 028°12'611.4
2018-Feb-12 19:30N 38°38' W 028°19'611.4
2018-Feb-12 19:01N 38°35' W 028°26'611.3
2018-Feb-12 18:30N 38°33' W 028°32'2 4.7
2018-Feb-12 18:00N 38°32' W 028°35'2 3.6
2018-Feb-12 17:30N 38°32' W 028°37'0 0.0
2018-Feb-12 17:00N 38°32' W 028°37'0 0.0
2018-Feb-12 16:30N 38°32' W 028°37'0 0.0
2018-Feb-12 16:00N 38°32' W 028°37'0 0.0
2018-Feb-12 15:30N 38°32' W 028°37'0 0.0
2018-Feb-12 15:00N 38°32' W 028°37'4 8.5
2018-Feb-12 14:30N 38°32' W 028°32'2 4.5
2018-Feb-12 14:00N 38°34' W 028°31'611.2
2018-Feb-12 13:30N 38°37' W 028°24'611.4
2018-Feb-12 13:01N 38°39' W 028°17'5 9.2
2018-Feb-12 12:30N 38°41' W 028°12'4 7.1
2018-Feb-12 12:00N 38°39' W 028°16'611.1
2018-Feb-12 11:30N 38°37' W 028°23'611.5
2018-Feb-12 11:00N 38°34' W 028°29'3 5.9
2018-Feb-12 10:31N 38°32' W 028°32'4 8.5
2018-Feb-12 10:00N 38°32' W 028°37'0 0.0
2018-Feb-11 22:48N 38°32' W 028°37'2 7.9
2018-Feb-11 22:30N 38°32' W 028°34'2 3.6
2018-Feb-11 22:00N 38°33' W 028°32'510.8
2018-Feb-11 21:30N 38°36' W 028°26'611.7
2018-Feb-11 21:00N 38°38' W 028°20'611.7
2018-Feb-11 20:30N 38°40' W 028°13'1 2.4
2018-Feb-11 20:00N 38°40' W 028°14'510.8
2018-Feb-11 19:30N 38°38' W 028°20'510.7
2018-Feb-11 19:00N 38°36' W 028°27'510.2
2018-Feb-11 18:31N 38°33' W 028°32'2 4.2
2018-Feb-11 18:00N 38°32' W 028°35'2 4.4
2018-Feb-11 17:30N 38°32' W 028°37'0 0.0
2018-Feb-11 17:00N 38°32' W 028°37'  
Track history (hours):
 
Tides and Currents Weather Stations Pressure Air Temp Water Temp Dewpoint Dewpoint Depression Visibility Wind Speed Wind Dir Waves Ship Positions

Cruzeiro Das Ilhas

Last reported at 2018-Feb-21 11:30 UTC. Time now 2018-Feb-21 11:50 UTC.
Position N 38°32' W 028°37'.

Length 33 m; draft 2.4 m.

Type: Passenger vessel. MMSI: 204701240.

Date/timePositionNaut miles runAvg speedWind from/ knotsBaromVisibWave heightAir tempDewpointWater temp
2018-Feb-21 11:30N 38°32' W 028°37'0 0.0
2018-Feb-21 11:00N 38°32' W 028°37'0 0.0
2018-Feb-21 10:30N 38°32' W 028°37'0 0.0
2018-Feb-21 10:00N 38°32' W 028°37'0 0.0
2018-Feb-20 15:02N 38°32' W 028°37'0 0.0
2018-Feb-20 15:00N 38°32' W 028°37'4 8.4
2018-Feb-20 14:30N 38°32' W 028°32'3 5.2
2018-Feb-20 14:00N 38°34' W 028°30'611.2
2018-Feb-20 13:30N 38°37' W 028°23'611.5
2018-Feb-20 13:01N 38°39' W 028°17'4 7.9
2018-Feb-20 12:31N 38°41' W 028°12'4 8.1
2018-Feb-20 12:00N 38°38' W 028°16'611.1
2018-Feb-20 11:30N 38°36' W 028°23'510.8
2018-Feb-20 11:00N 38°34' W 028°29'3 5.8
2018-Feb-20 10:30N 38°32' W 028°32'4 8.1
2018-Feb-20 10:00N 38°32' W 028°37'0 0.0
2018-Feb-20 09:30N 38°32' W 028°37'0 0.0
2018-Feb-19 22:55N 38°32' W 028°37'1 3.6
2018-Feb-19 22:31N 38°33' W 028°35'3 5.8
2018-Feb-19 22:00N 38°32' W 028°32'4 8.9
2018-Feb-19 21:30N 38°35' W 028°28'611.3
2018-Feb-19 21:00N 38°38' W 028°21'611.4
2018-Feb-19 20:30N 38°40' W 028°14'1 2.6
2018-Feb-19 20:00N 38°40' W 028°13'611.3
2018-Feb-19 19:30N 38°38' W 028°20'611.5
2018-Feb-19 19:00N 38°36' W 028°26'611.1
2018-Feb-19 18:30N 38°33' W 028°32'2 3.7
2018-Feb-19 18:00N 38°33' W 028°34'2 4.3
2018-Feb-19 17:30N 38°32' W 028°37'0 0.0
2018-Feb-19 17:00N 38°32' W 028°37'0 0.0
2018-Feb-19 16:30N 38°32' W 028°37'0 0.0
2018-Feb-19 16:01N 38°32' W 028°37'0 0.0
2018-Feb-19 15:30N 38°32' W 028°37'0 0.2
2018-Feb-19 15:00N 38°32' W 028°37'4 8.7
2018-Feb-19 14:30N 38°32' W 028°32'3 6.1
2018-Feb-19 14:00N 38°34' W 028°29'611.2
2018-Feb-19 13:30N 38°37' W 028°23'611.5
2018-Feb-19 13:00N 38°39' W 028°16'3 6.7
2018-Feb-19 12:31N 38°41' W 028°12'4 8.7
2018-Feb-19 12:00N 38°39' W 028°17'611.1
2018-Feb-19 11:30N 38°37' W 028°24'611.3
2018-Feb-19 11:00N 38°34' W 028°30'2 5.0
2018-Feb-19 10:30N 38°32' W 028°32'4 8.1
2018-Feb-19 10:00N 38°32' W 028°37'0 0.0
2018-Feb-18 22:47N 38°32' W 028°37'2 8.6
2018-Feb-18 22:30N 38°32' W 028°34'2 3.9
2018-Feb-18 22:01N 38°33' W 028°32'510.9
2018-Feb-18 21:30N 38°36' W 028°26'510.9
2018-Feb-18 21:00N 38°38' W 028°19'510.9
2018-Feb-18 20:30N 38°40' W 028°13'0 0.2
2018-Feb-18 20:00N 38°40' W 028°13'611.3
2018-Feb-18 19:30N 38°38' W 028°20'611.4
2018-Feb-18 19:00N 38°36' W 028°26'510.8
2018-Feb-18 18:30N 38°33' W 028°32'2 4.1
2018-Feb-18 18:00N 38°33' W 028°35'2 4.1
2018-Feb-18 17:30N 38°32' W 028°37'0 0.0
2018-Feb-17 20:51N 38°32' W 028°37'2 7.0
2018-Feb-17 20:31N 38°32' W 028°34'2 3.7
2018-Feb-17 20:00N 38°33' W 028°32'611.1
2018-Feb-17 19:30N 38°36' W 028°26'611.2
2018-Feb-17 19:01N 38°38' W 028°20'611.3
2018-Feb-17 18:30N 38°40' W 028°13'1 2.3
2018-Feb-17 18:00N 38°39' W 028°13'611.3
2018-Feb-17 17:30N 38°34' W 028°17'3 6.1
2018-Feb-17 17:00N 38°32' W 028°19'0 0.0
2018-Feb-17 16:31N 38°32' W 028°19'0 0.0
2018-Feb-17 16:00N 38°32' W 028°19'0 0.0
2018-Feb-17 15:30N 38°32' W 028°19'0 0.0
2018-Feb-17 15:00N 38°32' W 028°19'2 3.8
2018-Feb-17 14:31N 38°33' W 028°18'611.3
2018-Feb-17 14:00N 38°38' W 028°14'3 5.8
2018-Feb-17 13:30N 38°41' W 028°12'0 0.0
2018-Feb-17 13:01N 38°41' W 028°12'3 6.7
2018-Feb-17 12:30N 38°39' W 028°16'611.2
2018-Feb-17 12:00N 38°37' W 028°23'611.2
2018-Feb-17 11:31N 38°35' W 028°29'3 6.6
2018-Feb-17 11:00N 38°32' W 028°32'4 8.6
2018-Feb-17 10:31N 38°32' W 028°37'0 0.0
2018-Feb-16 23:48N 38°32' W 028°37'2 7.6
2018-Feb-16 23:31N 38°32' W 028°35'2 3.9
2018-Feb-16 23:00N 38°33' W 028°32'510.5
2018-Feb-16 22:30N 38°36' W 028°27'611.5
2018-Feb-16 22:00N 38°38' W 028°20'611.5
2018-Feb-16 21:30N 38°40' W 028°13'0 0.4
2018-Feb-16 21:00N 38°40' W 028°13'611.1
2018-Feb-16 20:31N 38°38' W 028°20'510.9
2018-Feb-16 20:00N 38°36' W 028°26'510.7
2018-Feb-16 19:30N 38°33' W 028°32'2 4.1
2018-Feb-16 19:01N 38°32' W 028°34'2 4.3
2018-Feb-16 18:30N 38°32' W 028°37'0 0.0
2018-Feb-16 18:00N 38°32' W 028°37'0 0.0
2018-Feb-16 17:30N 38°32' W 028°37'0 0.0
2018-Feb-16 17:00N 38°32' W 028°37'0 0.0
2018-Feb-16 16:30N 38°32' W 028°37'0 0.0
2018-Feb-16 16:00N 38°32' W 028°37'0 0.0
2018-Feb-16 15:30N 38°32' W 028°37'0 0.0
2018-Feb-16 15:00N 38°32' W 028°37'4 8.5
2018-Feb-16 14:30N 38°32' W 028°32'3 5.6
2018-Feb-16 14:00N 38°34' W 028°30'611.1
2018-Feb-16 13:30N 38°37' W 028°23'611.4
2018-Feb-16 13:00N 38°39' W 028°17'4 7.7
2018-Feb-16 12:30N 38°41' W 028°12'4 8.0
2018-Feb-16 12:01N 38°39' W 028°17'611.1
2018-Feb-16 11:30N 38°37' W 028°23'611.1
2018-Feb-16 11:01N 38°35' W 028°30'3 5.9
2018-Feb-16 10:30N 38°32' W 028°32'4 8.5
2018-Feb-16 10:01N 38°32' W 028°37'0 0.0
2018-Feb-15 15:01N 38°32' W 028°37'0 0.0
2018-Feb-15 15:00N 38°32' W 028°37'4 8.5
2018-Feb-15 14:30N 38°32' W 028°32'3 6.9
2018-Feb-15 14:01N 38°35' W 028°29'611.3
2018-Feb-15 13:30N 38°37' W 028°23'611.4
2018-Feb-15 13:00N 38°39' W 028°16'3 6.3
2018-Feb-15 12:30N 38°41' W 028°12'3 6.9
2018-Feb-15 12:01N 38°39' W 028°16'611.1
2018-Feb-15 11:30N 38°37' W 028°22'611.1
2018-Feb-15 11:00N 38°35' W 028°29'3 6.5
2018-Feb-15 10:30N 38°32' W 028°32'4 8.6
2018-Feb-15 10:00N 38°32' W 028°37'0 0.0
2018-Feb-14 22:49N 38°32' W 028°37'2 6.1
2018-Feb-14 22:30N 38°32' W 028°35'2 4.3
2018-Feb-14 22:00N 38°33' W 028°32'510.7
2018-Feb-14 21:30N 38°36' W 028°27'611.4
2018-Feb-14 21:00N 38°38' W 028°20'611.3
2018-Feb-14 20:30N 38°40' W 028°13'0 0.5
2018-Feb-14 20:00N 38°40' W 028°13'611.2
2018-Feb-14 19:31N 38°38' W 028°20'611.1
2018-Feb-14 19:00N 38°35' W 028°26'510.9
2018-Feb-14 18:30N 38°32' W 028°32'2 4.1
2018-Feb-14 18:00N 38°32' W 028°35'2 0.6
2018-Feb-14 14:34N 38°32' W 028°37'0 0.0
2018-Feb-14 14:31N 38°32' W 028°37'0 0.0
2018-Feb-14 14:00N 38°32' W 028°37'0 0.0
2018-Feb-14 13:30N 38°32' W 028°37'0 0.5
2018-Feb-14 13:00N 38°32' W 028°37'4 8.5
2018-Feb-14 12:30N 38°32' W 028°32'2 4.3
2018-Feb-14 12:00N 38°32' W 028°35'2 4.2
2018-Feb-14 11:31N 38°32' W 028°37'0 0.0
2018-Feb-14 11:00N 38°32' W 028°37'3 6.6
2018-Feb-14 10:30N 38°33' W 028°33'1 2.2
2018-Feb-14 10:00N 38°32' W 028°32'4 0.4
2018-Feb-13 22:48N 38°32' W 028°37'2 6.2
2018-Feb-13 22:30N 38°32' W 028°35'2 4.8
2018-Feb-13 22:00N 38°32' W 028°32'5 9.8
2018-Feb-13 21:30N 38°35' W 028°27'611.2
2018-Feb-13 21:00N 38°38' W 028°21'611.2
2018-Feb-13 20:30N 38°40' W 028°14'1 2.5
2018-Feb-13 20:00N 38°40' W 028°13'611.4
2018-Feb-13 19:30N 38°38' W 028°19'611.3
2018-Feb-13 19:01N 38°36' W 028°26'611.0
2018-Feb-13 18:30N 38°33' W 028°32'2 4.1
2018-Feb-13 18:00N 38°32' W 028°34'2 4.5
2018-Feb-13 17:30N 38°32' W 028°37'0 0.0
2018-Feb-12 22:53N 38°32' W 028°37'2 4.9
2018-Feb-12 22:30N 38°33' W 028°35'2 4.6
2018-Feb-12 22:00N 38°32' W 028°32'510.0
2018-Feb-12 21:30N 38°35' W 028°27'611.1
2018-Feb-12 21:01N 38°38' W 028°21'611.3
2018-Feb-12 20:30N 38°40' W 028°14'1 2.5
2018-Feb-12 20:00N 38°40' W 028°12'611.4
2018-Feb-12 19:30N 38°38' W 028°19'611.4
2018-Feb-12 19:01N 38°35' W 028°26'611.3
2018-Feb-12 18:30N 38°33' W 028°32'2 4.7
2018-Feb-12 18:00N 38°32' W 028°35'2 3.6
2018-Feb-12 17:30N 38°32' W 028°37'0 0.0
2018-Feb-12 17:00N 38°32' W 028°37'0 0.0
2018-Feb-12 16:30N 38°32' W 028°37'0 0.0
2018-Feb-12 16:00N 38°32' W 028°37'0 0.0
2018-Feb-12 15:30N 38°32' W 028°37'0 0.0
2018-Feb-12 15:00N 38°32' W 028°37'4 8.5
2018-Feb-12 14:30N 38°32' W 028°32'2 4.5
2018-Feb-12 14:00N 38°34' W 028°31'611.2
2018-Feb-12 13:30N 38°37' W 028°24'611.4
2018-Feb-12 13:01N 38°39' W 028°17'5 9.2
2018-Feb-12 12:30N 38°41' W 028°12'4 7.1
2018-Feb-12 12:00N 38°39' W 028°16'611.1
2018-Feb-12 11:30N 38°37' W 028°23'611.5
2018-Feb-12 11:00N 38°34' W 028°29'3 5.9
2018-Feb-12 10:31N 38°32' W 028°32'4 8.5
2018-Feb-12 10:00N 38°32' W 028°37'0 0.0
2018-Feb-11 22:48N 38°32' W 028°37'2 7.9
2018-Feb-11 22:30N 38°32' W 028°34'2 3.6
2018-Feb-11 22:00N 38°33' W 028°32'510.8
2018-Feb-11 21:30N 38°36' W 028°26'611.7
2018-Feb-11 21:00N 38°38' W 028°20'611.7
2018-Feb-11 20:30N 38°40' W 028°13'1 2.4
2018-Feb-11 20:00N 38°40' W 028°14'510.8
2018-Feb-11 19:30N 38°38' W 028°20'510.7
2018-Feb-11 19:00N 38°36' W 028°27'510.2
2018-Feb-11 18:31N 38°33' W 028°32'2 4.2
2018-Feb-11 18:00N 38°32' W 028°35'2 4.4
2018-Feb-11 17:30N 38°32' W 028°37'0 0.0
2018-Feb-11 17:00N 38°32' W 028°37'  

Dump ship's entire track history